Search for airport 
image banner adimage banner adimage banner ad
image banner ad

CL89 - Mga Chatsworth

Located in Chatsworth, United States

ICAO - CL89, IATA -

Data provided by Airmate  

General information

Coordinates: N34°14'20" W118°34'10"
Elevation is 859 feet MSL.
Magnetic variation is 14° East
View others Airports in California

Operational data

Special qualification required
Current time UTC:
Current local time:
Weather at : KVNY - Van Nuys ( 8 km )
METAR: KVNY 141151Z AUTO 00000KT 10SM CLR 19/13 A2990 RMK AO2 SLP116 T01940128 10250 20189 50001
TAF: KVNY 141128Z 1412/1512 VRB03KT P6SM SKC FM142000 15010KT P6SM SKC FM150000 28008KT P6SM SKC FM150300 VRB03KT P6SM SKC
View NOTAMs / SUP AIP / TFR affecting this airport [VIEW]
Communications frequencies: [VIEW]

Runways:

Airport contact information

Address: Chatsworth United States

Satellite view of CL89